sensor_id;sensor_type;location;lat;lon;timestamp;pressure;altitude;pressure_sealevel;temperature;humidity
69772;BME280;57046;45.988;18.664;2022-07-23T00:01:42;100553.72;;;21.47;63.65
69772;BME280;57046;45.988;18.664;2022-07-23T00:04:08;100541.94;;;21.50;63.86
69772;BME280;57046;45.988;18.664;2022-07-23T00:06:33;100540.78;;;21.58;63.31
69772;BME280;57046;45.988;18.664;2022-07-23T00:08:58;100537.66;;;21.63;61.10
69772;BME280;57046;45.988;18.664;2022-07-23T00:11:24;100535.66;;;21.60;61.22
69772;BME280;57046;45.988;18.664;2022-07-23T00:13:49;100539.63;;;21.63;60.88
69772;BME280;57046;45.988;18.664;2022-07-23T00:16:14;100539.22;;;21.61;62.47
69772;BME280;57046;45.988;18.664;2022-07-23T00:18:40;100543.94;;;21.57;62.73
69772;BME280;57046;45.988;18.664;2022-07-23T00:21:05;100537.22;;;21.47;63.28
69772;BME280;57046;45.988;18.664;2022-07-23T00:23:32;100543.13;;;21.46;63.49
69772;BME280;57046;45.988;18.664;2022-07-23T00:25:57;100542.72;;;21.26;64.52
69772;BME280;57046;45.988;18.664;2022-07-23T00:28:22;100543.09;;;21.24;64.28
69772;BME280;57046;45.988;18.664;2022-07-23T00:30:48;100548.59;;;21.24;64.57
69772;BME280;57046;45.988;18.664;2022-07-23T00:33:13;100546.22;;;21.23;64.74
69772;BME280;57046;45.988;18.664;2022-07-23T00:35:40;100542.28;;;21.20;64.83
69772;BME280;57046;45.988;18.664;2022-07-23T00:38:07;100546.63;;;21.18;65.14
69772;BME280;57046;45.988;18.664;2022-07-23T00:40:33;100550.16;;;21.15;64.69
69772;BME280;57046;45.988;18.664;2022-07-23T00:42:59;100555.66;;;21.15;64.42
69772;BME280;57046;45.988;18.664;2022-07-23T00:45:24;100553.25;;;21.10;64.77
69772;BME280;57046;45.988;18.664;2022-07-23T00:47:49;100535.97;;;21.06;65.44
69772;BME280;57046;45.988;18.664;2022-07-23T00:50:15;100542.22;;;20.99;66.14
69772;BME280;57046;45.988;18.664;2022-07-23T00:52:41;100548.09;;;20.98;66.16
69772;BME280;57046;45.988;18.664;2022-07-23T00:55:08;100549.69;;;20.95;66.20
69772;BME280;57046;45.988;18.664;2022-07-23T00:57:34;100543.38;;;20.95;66.48
69772;BME280;57046;45.988;18.664;2022-07-23T01:00:00;100546.47;;;20.86;66.89
69772;BME280;57046;45.988;18.664;2022-07-23T01:02:26;100547.69;;;20.89;67.09
69772;BME280;57046;45.988;18.664;2022-07-23T01:04:53;100543.75;;;20.93;66.04
69772;BME280;57046;45.988;18.664;2022-07-23T01:07:19;100528.47;;;20.89;66.08
69772;BME280;57046;45.988;18.664;2022-07-23T01:09:45;100541.75;;;20.83;67.01
69772;BME280;57046;45.988;18.664;2022-07-23T01:12:11;100533.53;;;20.83;66.44
69772;BME280;57046;45.988;18.664;2022-07-23T01:14:36;100537.03;;;20.80;67.45
69772;BME280;57046;45.988;18.664;2022-07-23T01:17:01;100533.44;;;20.65;67.81
69772;BME280;57046;45.988;18.664;2022-07-23T01:19:27;100524.34;;;20.47;67.40
69772;BME280;57046;45.988;18.664;2022-07-23T01:21:53;100524.38;;;20.54;69.20
69772;BME280;57046;45.988;18.664;2022-07-23T01:24:20;100520.41;;;20.48;68.78
69772;BME280;57046;45.988;18.664;2022-07-23T01:26:46;100525.94;;;20.55;69.25
69772;BME280;57046;45.988;18.664;2022-07-23T01:29:12;100524.00;;;20.56;68.70
69772;BME280;57046;45.988;18.664;2022-07-23T01:31:38;100518.09;;;20.54;68.76
69772;BME280;57046;45.988;18.664;2022-07-23T01:34:03;100517.31;;;20.53;68.54
69772;BME280;57046;45.988;18.664;2022-07-23T01:36:28;100516.13;;;20.51;68.53
69772;BME280;57046;45.988;18.664;2022-07-23T01:38:54;100506.66;;;20.45;68.67
69772;BME280;57046;45.988;18.664;2022-07-23T01:41:19;100514.94;;;20.52;67.93
69772;BME280;57046;45.988;18.664;2022-07-23T01:43:45;100518.09;;;20.50;68.25
69772;BME280;57046;45.988;18.664;2022-07-23T01:46:10;100513.72;;;20.42;69.11
69772;BME280;57046;45.988;18.664;2022-07-23T01:48:36;100515.69;;;20.42;69.97
69772;BME280;57046;45.988;18.664;2022-07-23T01:51:01;100515.66;;;20.38;70.77
69772;BME280;57046;45.988;18.664;2022-07-23T01:53:27;100509.34;;;20.27;71.05
69772;BME280;57046;45.988;18.664;2022-07-23T01:55:52;100516.03;;;20.29;70.66
69772;BME280;57046;45.988;18.664;2022-07-23T01:58:17;100498.38;;;20.30;69.90
69772;BME280;57046;45.988;18.664;2022-07-23T02:00:43;100503.84;;;20.27;70.17
69772;BME280;57046;45.988;18.664;2022-07-23T02:03:08;100506.50;;;20.16;70.10
69772;BME280;57046;45.988;18.664;2022-07-23T02:05:33;100506.47;;;20.09;70.55
69772;BME280;57046;45.988;18.664;2022-07-23T02:07:59;100512.72;;;20.06;70.94
69772;BME280;57046;45.988;18.664;2022-07-23T02:10:26;100502.47;;;20.00;71.28
69772;BME280;57046;45.988;18.664;2022-07-23T02:12:51;100509.16;;;20.02;71.78
69772;BME280;57046;45.988;18.664;2022-07-23T02:15:16;100520.19;;;20.09;71.14
69772;BME280;57046;45.988;18.664;2022-07-23T02:17:42;100515.09;;;20.11;70.52
69772;BME280;57046;45.988;18.664;2022-07-23T02:20:08;100517.09;;;20.21;70.47
69772;BME280;57046;45.988;18.664;2022-07-23T02:22:34;100528.19;;;20.36;69.39
69772;BME280;57046;45.988;18.664;2022-07-23T02:24:59;100524.09;;;20.08;71.06
69772;BME280;57046;45.988;18.664;2022-07-23T02:27:24;100519.19;;;19.80;71.34
69772;BME280;57046;45.988;18.664;2022-07-23T02:29:50;100519.53;;;19.75;71.76
69772;BME280;57046;45.988;18.664;2022-07-23T02:32:15;100525.69;;;19.62;71.58
69772;BME280;57046;45.988;18.664;2022-07-23T02:34:41;100527.63;;;19.58;71.14
69772;BME280;57046;45.988;18.664;2022-07-23T02:37:06;100527.88;;;19.42;70.80
69772;BME280;57046;45.988;18.664;2022-07-23T02:39:32;100524.75;;;19.44;71.06
69772;BME280;57046;45.988;18.664;2022-07-23T02:41:57;100525.53;;;19.44;71.04
69772;BME280;57046;45.988;18.664;2022-07-23T02:44:22;100525.50;;;19.41;71.85
69772;BME280;57046;45.988;18.664;2022-07-23T02:46:47;100528.19;;;19.37;73.06
69772;BME280;57046;45.988;18.664;2022-07-23T02:49:13;100514.81;;;19.28;72.99
69772;BME280;57046;45.988;18.664;2022-07-23T02:51:38;100522.19;;;19.24;73.78
69772;BME280;57046;45.988;18.664;2022-07-23T02:54:03;100537.50;;;19.29;74.48
69772;BME280;57046;45.988;18.664;2022-07-23T02:56:29;100523.06;;;19.32;74.13
69772;BME280;57046;45.988;18.664;2022-07-23T02:58:54;100532.13;;;19.40;72.94
69772;BME280;57046;45.988;18.664;2022-07-23T03:01:19;100541.50;;;19.35;73.98
69772;BME280;57046;45.988;18.664;2022-07-23T03:03:45;100530.88;;;19.33;74.31
69772;BME280;57046;45.988;18.664;2022-07-23T03:06:10;100535.22;;;19.35;74.17
69772;BME280;57046;45.988;18.664;2022-07-23T03:08:35;100539.56;;;19.39;74.08
69772;BME280;57046;45.988;18.664;2022-07-23T03:11:01;100530.94;;;19.37;73.17
69772;BME280;57046;45.988;18.664;2022-07-23T03:13:26;100538.47;;;19.44;71.53
69772;BME280;57046;45.988;18.664;2022-07-23T03:15:52;100536.19;;;19.49;71.64
69772;BME280;57046;45.988;18.664;2022-07-23T03:18:17;100534.19;;;19.50;72.69
69772;BME280;57046;45.988;18.664;2022-07-23T03:20:42;100529.47;;;19.47;72.92
69772;BME280;57046;45.988;18.664;2022-07-23T03:23:08;100532.19;;;19.43;72.55
69772;BME280;57046;45.988;18.664;2022-07-23T03:25:33;100532.22;;;19.47;72.77
69772;BME280;57046;45.988;18.664;2022-07-23T03:27:58;100533.03;;;19.51;71.54
69772;BME280;57046;45.988;18.664;2022-07-23T03:30:24;100534.63;;;19.52;70.49
69772;BME280;57046;45.988;18.664;2022-07-23T03:32:49;100526.41;;;19.52;70.49
69772;BME280;57046;45.988;18.664;2022-07-23T03:35:14;100533.50;;;19.60;70.80
69772;BME280;57046;45.988;18.664;2022-07-23T03:37:40;100527.66;;;19.61;72.19
69772;BME280;57046;45.988;18.664;2022-07-23T03:40:06;100525.28;;;19.60;70.74
69772;BME280;57046;45.988;18.664;2022-07-23T03:42:31;100525.28;;;19.60;71.69
69772;BME280;57046;45.988;18.664;2022-07-23T03:44:57;100521.78;;;19.59;71.56
69772;BME280;57046;45.988;18.664;2022-07-23T03:47:22;100536.69;;;19.62;72.29
69772;BME280;57046;45.988;18.664;2022-07-23T03:49:49;100535.91;;;19.65;71.00
69772;BME280;57046;45.988;18.664;2022-07-23T03:52:14;100536.72;;;19.69;71.70
69772;BME280;57046;45.988;18.664;2022-07-23T03:54:40;100544.94;;;19.65;71.90
69772;BME280;57046;45.988;18.664;2022-07-23T03:57:05;100536.56;;;19.51;72.56
69772;BME280;57046;45.988;18.664;2022-07-23T03:59:30;100539.16;;;19.37;71.36
69772;BME280;57046;45.988;18.664;2022-07-23T04:01:56;100529.34;;;19.36;70.77
69772;BME280;57046;45.988;18.664;2022-07-23T04:04:21;100528.63;;;19.39;70.59
69772;BME280;57046;45.988;18.664;2022-07-23T04:06:46;100527.78;;;19.35;71.40
69772;BME280;57046;45.988;18.664;2022-07-23T04:09:12;100529.31;;;19.32;71.84
69772;BME280;57046;45.988;18.664;2022-07-23T04:11:37;100533.44;;;19.49;71.00
69772;BME280;57046;45.988;18.664;2022-07-23T04:14:03;100535.41;;;19.52;71.33
69772;BME280;57046;45.988;18.664;2022-07-23T04:16:28;100527.66;;;19.61;71.01
69772;BME280;57046;45.988;18.664;2022-07-23T04:18:53;100529.66;;;19.68;71.69
69772;BME280;57046;45.988;18.664;2022-07-23T04:21:19;100523.84;;;19.73;71.74
69772;BME280;57046;45.988;18.664;2022-07-23T04:23:44;100514.09;;;19.79;72.21
69772;BME280;57046;45.988;18.664;2022-07-23T04:26:10;100514.16;;;19.86;71.37
69772;BME280;57046;45.988;18.664;2022-07-23T04:28:35;100514.63;;;19.99;70.84
69772;BME280;57046;45.988;18.664;2022-07-23T04:31:00;100514.72;;;20.13;69.89
69772;BME280;57046;45.988;18.664;2022-07-23T04:33:26;100509.38;;;20.30;69.62
69772;BME280;57046;45.988;18.664;2022-07-23T04:35:51;100511.00;;;20.46;69.79
69772;BME280;57046;45.988;18.664;2022-07-23T04:38:16;100518.16;;;20.64;69.22
69772;BME280;57046;45.988;18.664;2022-07-23T04:40:42;100525.66;;;20.74;68.40
69772;BME280;57046;45.988;18.664;2022-07-23T04:43:07;100516.22;;;20.75;67.90
69772;BME280;57046;45.988;18.664;2022-07-23T04:45:32;100520.59;;;20.91;67.77
69772;BME280;57046;45.988;18.664;2022-07-23T04:47:58;100519.06;;;21.00;68.39
69772;BME280;57046;45.988;18.664;2022-07-23T04:50:23;100525.72;;;20.92;69.01
69772;BME280;57046;45.988;18.664;2022-07-23T04:52:49;100519.03;;;20.93;69.21
69772;BME280;57046;45.988;18.664;2022-07-23T04:55:15;100525.34;;;21.01;67.72
69772;BME280;57046;45.988;18.664;2022-07-23T04:57:40;100523.00;;;21.06;67.57
69772;BME280;57046;45.988;18.664;2022-07-23T05:00:07;100530.13;;;21.18;67.89
69772;BME280;57046;45.988;18.664;2022-07-23T05:02:32;100521.09;;;21.24;67.87
69772;BME280;57046;45.988;18.664;2022-07-23T05:04:57;100522.28;;;21.27;67.56
69772;BME280;57046;45.988;18.664;2022-07-23T05:07:23;100530.53;;;21.30;67.10
69772;BME280;57046;45.988;18.664;2022-07-23T05:09:48;100530.56;;;21.41;67.29
69772;BME280;57046;45.988;18.664;2022-07-23T05:12:13;100521.94;;;21.50;66.42
69772;BME280;57046;45.988;18.664;2022-07-23T05:14:39;100528.19;;;21.61;65.55
69772;BME280;57046;45.988;18.664;2022-07-23T05:17:04;100527.03;;;21.69;65.85
69772;BME280;57046;45.988;18.664;2022-07-23T05:19:29;100534.88;;;21.81;66.86
69772;BME280;57046;45.988;18.664;2022-07-23T05:21:55;100528.22;;;22.03;65.18
69772;BME280;57046;45.988;18.664;2022-07-23T05:24:20;100527.81;;;22.05;65.36
69772;BME280;57046;45.988;18.664;2022-07-23T05:26:45;100534.88;;;22.16;64.88
69772;BME280;57046;45.988;18.664;2022-07-23T05:29:11;100535.66;;;22.27;64.74
69772;BME280;57046;45.988;18.664;2022-07-23T05:31:36;100547.41;;;22.39;64.94
69772;BME280;57046;45.988;18.664;2022-07-23T05:34:01;100541.88;;;22.53;65.17
69772;BME280;57046;45.988;18.664;2022-07-23T05:36:27;100547.34;;;22.63;64.34
69772;BME280;57046;45.988;18.664;2022-07-23T05:38:52;100548.16;;;22.67;63.79
69772;BME280;57046;45.988;18.664;2022-07-23T05:41:17;100547.66;;;22.90;62.85
69772;BME280;57046;45.988;18.664;2022-07-23T05:43:43;100559.00;;;23.10;62.99
69772;BME280;57046;45.988;18.664;2022-07-23T05:46:08;100555.75;;;23.25;61.87
69772;BME280;57046;45.988;18.664;2022-07-23T05:48:33;100554.09;;;23.39;60.48
69772;BME280;57046;45.988;18.664;2022-07-23T05:50:59;100564.66;;;23.54;58.67
69772;BME280;57046;45.988;18.664;2022-07-23T05:53:24;100559.06;;;23.61;58.96
69772;BME280;57046;45.988;18.664;2022-07-23T05:55:49;100564.16;;;23.70;59.29
69772;BME280;57046;45.988;18.664;2022-07-23T05:58:15;100563.22;;;23.87;58.35
69772;BME280;57046;45.988;18.664;2022-07-23T06:00:40;100558.41;;;23.98;58.06
69772;BME280;57046;45.988;18.664;2022-07-23T06:03:09;100562.63;;;24.10;57.91
69772;BME280;57046;45.988;18.664;2022-07-23T06:05:35;100562.44;;;24.31;56.53
69772;BME280;57046;45.988;18.664;2022-07-23T06:08:00;100558.38;;;24.43;55.79
69772;BME280;57046;45.988;18.664;2022-07-23T06:10:26;100560.53;;;24.62;57.00
69772;BME280;57046;45.988;18.664;2022-07-23T06:12:51;100553.53;;;24.88;57.91
69772;BME280;57046;45.988;18.664;2022-07-23T06:15:16;100553.81;;;24.97;55.92
69772;BME280;57046;45.988;18.664;2022-07-23T06:17:42;100560.81;;;25.05;54.96
69772;BME280;57046;45.988;18.664;2022-07-23T06:20:09;100544.50;;;25.14;56.55
69772;BME280;57046;45.988;18.664;2022-07-23T06:22:40;100549.13;;;25.51;54.79
69772;BME280;57046;45.988;18.664;2022-07-23T06:25:06;100551.34;;;25.59;57.45
69772;BME280;57046;45.988;18.664;2022-07-23T06:27:31;100552.81;;;25.67;56.05
69772;BME280;57046;45.988;18.664;2022-07-23T06:29:57;100562.31;;;25.90;56.14
69772;BME280;57046;45.988;18.664;2022-07-23T06:32:22;100544.56;;;25.87;56.70
69772;BME280;57046;45.988;18.664;2022-07-23T06:34:48;100548.66;;;26.02;55.71
69772;BME280;57046;45.988;18.664;2022-07-23T06:37:13;100551.31;;;26.09;56.65
69772;BME280;57046;45.988;18.664;2022-07-23T06:39:38;100557.81;;;26.22;56.29
69772;BME280;57046;45.988;18.664;2022-07-23T06:42:04;100556.78;;;26.36;55.35
69772;BME280;57046;45.988;18.664;2022-07-23T06:44:29;100556.59;;;26.47;55.03
69772;BME280;57046;45.988;18.664;2022-07-23T06:46:55;100558.97;;;26.64;52.03
69772;BME280;57046;45.988;18.664;2022-07-23T06:49:20;100562.00;;;26.93;52.77
69772;BME280;57046;45.988;18.664;2022-07-23T06:51:46;100551.66;;;27.13;48.65
69772;BME280;57046;45.988;18.664;2022-07-23T06:54:11;100554.84;;;27.48;48.50
69772;BME280;57046;45.988;18.664;2022-07-23T06:56:37;100545.31;;;27.65;49.65
69772;BME280;57046;45.988;18.664;2022-07-23T06:59:03;100547.03;;;27.75;50.30
69772;BME280;57046;45.988;18.664;2022-07-23T07:01:28;100549.38;;;27.93;49.51
69772;BME280;57046;45.988;18.664;2022-07-23T07:03:53;100539.53;;;28.20;49.44
69772;BME280;57046;45.988;18.664;2022-07-23T07:06:19;100516.44;;;28.23;48.89
69772;BME280;57046;45.988;18.664;2022-07-23T07:08:44;100527.94;;;28.67;47.24
69772;BME280;57046;45.988;18.664;2022-07-23T07:11:10;100530.84;;;28.76;49.26
69772;BME280;57046;45.988;18.664;2022-07-23T07:13:36;100531.78;;;28.98;51.99
69772;BME280;57046;45.988;18.664;2022-07-23T07:16:02;100530.03;;;29.29;47.42
69772;BME280;57046;45.988;18.664;2022-07-23T07:18:28;100525.97;;;29.68;43.26
69772;BME280;57046;45.988;18.664;2022-07-23T07:20:53;100529.63;;;29.78;42.66
69772;BME280;57046;45.988;18.664;2022-07-23T07:23:21;100527.63;;;29.91;43.92
69772;BME280;57046;45.988;18.664;2022-07-23T07:25:47;100529.44;;;30.19;43.51
69772;BME280;57046;45.988;18.664;2022-07-23T07:28:12;100524.41;;;30.49;44.38
69772;BME280;57046;45.988;18.664;2022-07-23T07:30:38;100516.94;;;30.67;46.19
69772;BME280;57046;45.988;18.664;2022-07-23T07:33:04;100522.09;;;31.00;42.30
69772;BME280;57046;45.988;18.664;2022-07-23T07:35:29;100516.44;;;31.12;42.79
69772;BME280;57046;45.988;18.664;2022-07-23T07:38:13;100516.53;;;31.40;39.86
69772;BME280;57046;45.988;18.664;2022-07-23T07:40:58;100520.78;;;31.53;39.63
69772;BME280;57046;45.988;18.664;2022-07-23T07:43:43;100524.09;;;31.70;39.35
69772;BME280;57046;45.988;18.664;2022-07-23T07:46:30;100511.34;;;31.78;39.74
69772;BME280;57046;45.988;18.664;2022-07-23T07:49:16;100503.13;;;31.93;39.98
69772;BME280;57046;45.988;18.664;2022-07-23T07:52:02;100511.56;;;32.11;38.22
69772;BME280;57046;45.988;18.664;2022-07-23T07:54:47;100511.41;;;32.23;37.86
69772;BME280;57046;45.988;18.664;2022-07-23T07:57:34;100518.69;;;32.39;38.52
69772;BME280;57046;45.988;18.664;2022-07-23T08:00:26;100514.16;;;32.51;39.46
69772;BME280;57046;45.988;18.664;2022-07-23T08:03:16;100522.09;;;32.52;38.35
69772;BME280;57046;45.988;18.664;2022-07-23T08:06:04;100521.47;;;32.75;37.02
69772;BME280;57046;45.988;18.664;2022-07-23T08:08:50;100519.69;;;32.96;35.00
69772;BME280;57046;45.988;18.664;2022-07-23T08:11:36;100521.50;;;33.08;35.78
69772;BME280;57046;45.988;18.664;2022-07-23T08:14:21;100530.19;;;33.19;34.87
69772;BME280;57046;45.988;18.664;2022-07-23T08:17:07;100526.09;;;33.30;34.43
69772;BME280;57046;45.988;18.664;2022-07-23T08:19:53;100508.78;;;33.40;35.12
69772;BME280;57046;45.988;18.664;2022-07-23T08:22:57;100522.19;;;33.60;34.69
69772;BME280;57046;45.988;18.664;2022-07-23T08:25:43;100517.22;;;33.88;35.03
69772;BME280;57046;45.988;18.664;2022-07-23T08:28:28;100513.44;;;33.91;34.33
69772;BME280;57046;45.988;18.664;2022-07-23T08:31:14;100515.81;;;34.07;33.37
69772;BME280;57046;45.988;18.664;2022-07-23T08:34:00;100518.91;;;34.33;35.06
69772;BME280;57046;45.988;18.664;2022-07-23T08:36:46;100521.44;;;34.45;33.21
69772;BME280;57046;45.988;18.664;2022-07-23T08:39:38;100524.13;;;34.54;31.78
69772;BME280;57046;45.988;18.664;2022-07-23T08:42:24;100514.97;;;34.68;33.14
69772;BME280;57046;45.988;18.664;2022-07-23T08:44:50;100521.84;;;34.67;31.46
69772;BME280;57046;45.988;18.664;2022-07-23T08:47:15;100513.03;;;34.74;31.40
69772;BME280;57046;45.988;18.664;2022-07-23T08:49:41;100500.41;;;34.85;31.87
69772;BME280;57046;45.988;18.664;2022-07-23T08:52:07;100506.88;;;35.05;28.13
69772;BME280;57046;45.988;18.664;2022-07-23T08:54:34;100507.56;;;35.15;28.52
69772;BME280;57046;45.988;18.664;2022-07-23T08:56:59;100511.72;;;35.19;30.88
69772;BME280;57046;45.988;18.664;2022-07-23T08:59:25;100502.13;;;35.26;29.79
69772;BME280;57046;45.988;18.664;2022-07-23T09:01:50;100499.84;;;35.45;24.83
69772;BME280;57046;45.988;18.664;2022-07-23T09:04:16;100511.72;;;35.54;27.90
69772;BME280;57046;45.988;18.664;2022-07-23T09:06:42;100512.66;;;35.66;26.35
69772;BME280;57046;45.988;18.664;2022-07-23T09:09:18;100512.97;;;35.68;25.44
69772;BME280;57046;45.988;18.664;2022-07-23T09:11:47;100511.03;;;35.80;25.92
69772;BME280;57046;45.988;18.664;2022-07-23T09:14:13;100517.88;;;35.93;27.57
69772;BME280;57046;45.988;18.664;2022-07-23T09:16:39;100509.72;;;35.95;25.63
69772;BME280;57046;45.988;18.664;2022-07-23T09:19:06;100508.13;;;36.09;24.74
69772;BME280;57046;45.988;18.664;2022-07-23T09:21:37;100504.53;;;36.08;26.91
69772;BME280;57046;45.988;18.664;2022-07-23T09:24:21;100503.69;;;36.28;26.00
69772;BME280;57046;45.988;18.664;2022-07-23T09:27:06;100508.47;;;36.42;25.83
69772;BME280;57046;45.988;18.664;2022-07-23T09:29:56;100502.88;;;36.48;25.02
69772;BME280;57046;45.988;18.664;2022-07-23T09:33:07;100515.09;;;36.65;24.07
69772;BME280;57046;45.988;18.664;2022-07-23T09:35:55;100510.22;;;36.65;24.08
69772;BME280;57046;45.988;18.664;2022-07-23T09:38:49;100514.41;;;36.76;26.93
69772;BME280;57046;45.988;18.664;2022-07-23T09:41:40;100510.22;;;36.91;25.69
69772;BME280;57046;45.988;18.664;2022-07-23T09:44:26;100505.28;;;36.86;24.83
69772;BME280;57046;45.988;18.664;2022-07-23T09:47:12;100505.47;;;36.77;24.79
69772;BME280;57046;45.988;18.664;2022-07-23T09:50:06;100491.88;;;36.76;25.09
69772;BME280;57046;45.988;18.664;2022-07-23T09:52:53;100491.69;;;37.16;24.07
69772;BME280;57046;45.988;18.664;2022-07-23T09:55:39;100502.25;;;37.21;25.73
69772;BME280;57046;45.988;18.664;2022-07-23T09:58:25;100503.91;;;37.39;27.91
69772;BME280;57046;45.988;18.664;2022-07-23T10:01:12;100492.38;;;37.42;24.04
69772;BME280;57046;45.988;18.664;2022-07-23T10:03:59;100500.66;;;37.57;26.26
69772;BME280;57046;45.988;18.664;2022-07-23T10:06:45;100504.53;;;37.59;25.96
69772;BME280;57046;45.988;18.664;2022-07-23T10:09:34;100497.41;;;37.33;22.88
69772;BME280;57046;45.988;18.664;2022-07-23T10:12:20;100498.13;;;37.64;23.10
69772;BME280;57046;45.988;18.664;2022-07-23T10:15:06;100491.47;;;37.67;23.92
69772;BME280;57046;45.988;18.664;2022-07-23T10:17:52;100490.06;;;37.46;22.19
69772;BME280;57046;45.988;18.664;2022-07-23T10:20:38;100491.97;;;37.60;23.79
69772;BME280;57046;45.988;18.664;2022-07-23T10:24:12;100483.06;;;37.73;21.95
69772;BME280;57046;45.988;18.664;2022-07-23T11:06:05;100411.34;;;38.41;22.90
69772;BME280;57046;45.988;18.664;2022-07-23T11:09:27;100432.13;;;38.49;22.78
69772;BME280;57046;45.988;18.664;2022-07-23T11:17:58;100431.34;;;38.93;23.66
69772;BME280;57046;45.988;18.664;2022-07-23T11:20:44;100417.47;;;38.89;23.05
69772;BME280;57046;45.988;18.664;2022-07-23T11:23:59;100423.84;;;39.06;21.83
69772;BME280;57046;45.988;18.664;2022-07-23T11:26:56;100421.59;;;38.88;20.58
69772;BME280;57046;45.988;18.664;2022-07-23T11:29:44;100414.94;;;38.63;20.28
69772;BME280;57046;45.988;18.664;2022-07-23T11:32:33;100405.16;;;38.81;22.29
69772;BME280;57046;45.988;18.664;2022-07-23T11:35:27;100399.72;;;39.05;20.58
69772;BME280;57046;45.988;18.664;2022-07-23T11:38:23;100392.22;;;39.19;20.68
69772;BME280;57046;45.988;18.664;2022-07-23T11:41:09;100397.09;;;39.13;21.07
69772;BME280;57046;45.988;18.664;2022-07-23T11:43:54;100390.97;;;39.09;19.99
69772;BME280;57046;45.988;18.664;2022-07-23T11:46:40;100388.84;;;39.20;21.40
69772;BME280;57046;45.988;18.664;2022-07-23T11:49:27;100384.03;;;39.04;20.55
69772;BME280;57046;45.988;18.664;2022-07-23T11:52:14;100377.06;;;39.11;20.90
69772;BME280;57046;45.988;18.664;2022-07-23T11:54:51;100377.81;;;39.17;20.40
69772;BME280;57046;45.988;18.664;2022-07-23T11:57:18;100378.03;;;39.36;20.83
69772;BME280;57046;45.988;18.664;2022-07-23T12:00:16;100370.31;;;39.31;21.00
69772;BME280;57046;45.988;18.664;2022-07-23T12:03:03;100370.56;;;39.33;21.20
69772;BME280;57046;45.988;18.664;2022-07-23T12:05:48;100370.34;;;39.25;21.74
69772;BME280;57046;45.988;18.664;2022-07-23T12:08:41;100365.59;;;39.50;20.58
69772;BME280;57046;45.988;18.664;2022-07-23T12:11:33;100365.88;;;39.46;20.63
69772;BME280;57046;45.988;18.664;2022-07-23T12:14:19;100361.13;;;39.65;20.26
69772;BME280;57046;45.988;18.664;2022-07-23T12:17:11;100354.59;;;39.87;21.13
69772;BME280;57046;45.988;18.664;2022-07-23T12:19:58;100357.13;;;39.91;21.18
69772;BME280;57046;45.988;18.664;2022-07-23T12:22:46;100346.03;;;39.93;22.89
69772;BME280;57046;45.988;18.664;2022-07-23T12:25:34;100341.63;;;39.97;20.22
69772;BME280;57046;45.988;18.664;2022-07-23T12:28:31;100339.22;;;39.77;20.93
69772;BME280;57046;45.988;18.664;2022-07-23T12:31:26;100342.63;;;39.59;20.47
69772;BME280;57046;45.988;18.664;2022-07-23T12:34:15;100344.13;;;39.71;19.95
69772;BME280;57046;45.988;18.664;2022-07-23T12:37:01;100338.25;;;39.58;20.30
69772;BME280;57046;45.988;18.664;2022-07-23T12:39:46;100320.59;;;39.87;21.63
69772;BME280;57046;45.988;18.664;2022-07-23T12:42:42;100336.03;;;40.22;20.82
69772;BME280;57046;45.988;18.664;2022-07-23T12:45:29;100330.09;;;40.49;22.67
69772;BME280;57046;45.988;18.664;2022-07-23T12:48:06;100319.75;;;40.28;18.51
69772;BME280;57046;45.988;18.664;2022-07-23T12:50:42;100298.94;;;39.90;19.52
69772;BME280;57046;45.988;18.664;2022-07-23T12:53:23;100312.66;;;40.15;20.79
69772;BME280;57046;45.988;18.664;2022-07-23T12:55:49;100316.50;;;40.18;20.31
69772;BME280;57046;45.988;18.664;2022-07-23T12:58:17;100294.97;;;40.34;19.55
69772;BME280;57046;45.988;18.664;2022-07-23T13:01:00;100310.22;;;40.25;19.37
69772;BME280;57046;45.988;18.664;2022-07-23T13:05:57;100298.81;;;40.06;19.79
69772;BME280;57046;45.988;18.664;2022-07-23T13:08:24;100299.66;;;40.26;19.92
69772;BME280;57046;45.988;18.664;2022-07-23T13:10:50;100292.69;;;40.56;19.83
69772;BME280;57046;45.988;18.664;2022-07-23T13:13:15;100295.31;;;40.73;19.58
69772;BME280;57046;45.988;18.664;2022-07-23T13:15:42;100300.97;;;40.49;19.26
69772;BME280;57046;45.988;18.664;2022-07-23T13:18:07;100302.53;;;40.74;19.08
69772;BME280;57046;45.988;18.664;2022-07-23T13:20:33;100287.66;;;40.68;18.52
69772;BME280;57046;45.988;18.664;2022-07-23T13:22:59;100289.59;;;40.30;19.38
69772;BME280;57046;45.988;18.664;2022-07-23T13:25:25;100278.84;;;40.47;19.29
69772;BME280;57046;45.988;18.664;2022-07-23T13:27:51;100277.59;;;40.43;18.94
69772;BME280;57046;45.988;18.664;2022-07-23T13:30:16;100273.66;;;40.51;20.21
69772;BME280;57046;45.988;18.664;2022-07-23T13:32:42;100273.41;;;40.49;20.13
69772;BME280;57046;45.988;18.664;2022-07-23T13:35:07;100276.81;;;40.42;19.21
69772;BME280;57046;45.988;18.664;2022-07-23T13:37:32;100277.75;;;40.32;18.89
69772;BME280;57046;45.988;18.664;2022-07-23T13:39:58;100268.75;;;40.28;18.05
69772;BME280;57046;45.988;18.664;2022-07-23T13:42:23;100270.41;;;40.17;18.50
69772;BME280;57046;45.988;18.664;2022-07-23T13:44:48;100268.56;;;40.20;18.33
69772;BME280;57046;45.988;18.664;2022-07-23T13:47:14;100267.69;;;40.31;20.25
69772;BME280;57046;45.988;18.664;2022-07-23T13:49:39;100262.03;;;40.55;19.01
69772;BME280;57046;45.988;18.664;2022-07-23T13:52:05;100262.19;;;40.08;20.21